<?xml version='1.0' encoding='UTF-8'?><gpx version="1.1" creator="JPX - https://github.com/jenetics/jpx" xmlns="http://www.topografix.com/GPX/1/1"><trk><trkseg><trkpt lat="45.8474025" lon="9.4127711"><ele>231.0</ele><time>2026-03-27T08:33:44.207Z</time></trkpt><trkpt lat="45.8473678" lon="9.4126941"><ele>231.0</ele><time>2026-03-27T08:33:46.21Z</time></trkpt><trkpt lat="45.8474354" lon="9.4126361"><ele>231.0</ele><time>2026-03-27T08:33:58.21Z</time></trkpt><trkpt lat="45.8474817" lon="9.4127056"><ele>231.0</ele><time>2026-03-27T08:34:01.207Z</time></trkpt><trkpt lat="45.8477147" lon="9.4129824"><ele>238.0</ele><time>2026-03-27T08:34:02.213Z</time></trkpt><trkpt lat="45.8480042" lon="9.4137854"><ele>238.0</ele><time>2026-03-27T08:34:04.107Z</time></trkpt><trkpt lat="45.8478203" lon="9.4137058"><ele>238.0</ele><time>2026-03-27T08:34:05.107Z</time></trkpt><trkpt lat="45.8477563" lon="9.4137081"><ele>238.0</ele><time>2026-03-27T08:34:09.202Z</time></trkpt><trkpt lat="45.8476907" lon="9.4136792"><ele>238.0</ele><time>2026-03-27T08:34:13.258Z</time></trkpt><trkpt lat="45.847774" lon="9.4137179"><ele>238.0</ele><time>2026-03-27T08:34:19.186Z</time></trkpt><trkpt lat="45.8478427" lon="9.4136813"><ele>238.0</ele><time>2026-03-27T08:34:24.179Z</time></trkpt><trkpt lat="45.8481592" lon="9.4135065"><ele>238.0</ele><time>2026-03-27T08:34:27.103Z</time></trkpt><trkpt lat="45.8483232" lon="9.4134315"><ele>238.0</ele><time>2026-03-27T08:34:28.13Z</time></trkpt><trkpt lat="45.8483707" lon="9.4133581"><ele>238.0</ele><time>2026-03-27T08:34:59.168Z</time></trkpt><trkpt lat="45.8484245" lon="9.413407"><ele>238.0</ele><time>2026-03-27T08:35:07.131Z</time></trkpt><trkpt lat="45.8482673" lon="9.4131057"><ele>238.0</ele><time>2026-03-27T08:35:13.163Z</time></trkpt><trkpt lat="45.8482158" lon="9.4130529"><ele>237.99999999999997</ele><time>2026-03-27T08:35:16.128Z</time></trkpt><trkpt lat="45.8481648" lon="9.4131313"><ele>238.0</ele><time>2026-03-27T08:35:22.211Z</time></trkpt><trkpt lat="45.8481125" lon="9.4131989"><ele>238.0</ele><time>2026-03-27T08:35:37.423Z</time></trkpt><trkpt lat="45.8480431" lon="9.413264"><ele>238.0</ele><time>2026-03-27T08:35:46.087Z</time></trkpt><trkpt lat="45.8479669" lon="9.4132808"><ele>237.99999999999997</ele><time>2026-03-27T08:35:50.186Z</time></trkpt><trkpt lat="45.8478937" lon="9.4133249"><ele>238.0</ele><time>2026-03-27T08:35:54.139Z</time></trkpt><trkpt lat="45.8478415" lon="9.4134673"><ele>238.0</ele><time>2026-03-27T08:36:12.701Z</time></trkpt><trkpt lat="45.8478728" lon="9.4135538"><ele>238.0</ele><time>2026-03-27T08:36:19.203Z</time></trkpt><trkpt lat="45.847938" lon="9.4135767"><ele>238.0</ele><time>2026-03-27T08:36:28.146Z</time></trkpt><trkpt lat="45.8479077" lon="9.4136753"><ele>238.0</ele><time>2026-03-27T08:36:33.139Z</time></trkpt><trkpt lat="45.8478748" lon="9.4137548"><ele>238.0</ele><time>2026-03-27T08:36:38.131Z</time></trkpt><trkpt lat="45.8478343" lon="9.4138262"><ele>238.0</ele><time>2026-03-27T08:36:44.048Z</time></trkpt><trkpt lat="45.8478197" lon="9.4139317"><ele>238.0</ele><time>2026-03-27T08:36:49.155Z</time></trkpt><trkpt lat="45.8477936" lon="9.414019"><ele>238.57142857142856</ele><time>2026-03-27T08:36:55.187Z</time></trkpt><trkpt lat="45.8477512" lon="9.4140888"><ele>239.14285714285714</ele><time>2026-03-27T08:37:04.131Z</time></trkpt><trkpt lat="45.8477752" lon="9.414175"><ele>239.71428571428572</ele><time>2026-03-27T08:37:21.187Z</time></trkpt><trkpt lat="45.8477989" lon="9.4142846"><ele>240.28571428571428</ele><time>2026-03-27T08:37:28.207Z</time></trkpt><trkpt lat="45.8478424" lon="9.4143629"><ele>240.85714285714283</ele><time>2026-03-27T08:37:33.167Z</time></trkpt><trkpt lat="45.8479077" lon="9.4143816"><ele>241.42857142857142</ele><time>2026-03-27T08:37:50.088Z</time></trkpt><trkpt lat="45.8479713" lon="9.4143709"><ele>242.0</ele><time>2026-03-27T08:38:00.088Z</time></trkpt><trkpt lat="45.8480189" lon="9.4144314"><ele>242.0</ele><time>2026-03-27T08:38:20.155Z</time></trkpt><trkpt lat="45.8479541" lon="9.41445"><ele>241.99999999999997</ele><time>2026-03-27T08:38:56.139Z</time></trkpt><trkpt lat="45.8478792" lon="9.4145566"><ele>242.0</ele><time>2026-03-27T08:39:16.211Z</time></trkpt><trkpt lat="45.8478249" lon="9.4146057"><ele>242.0</ele><time>2026-03-27T08:39:22.139Z</time></trkpt><trkpt lat="45.847763" lon="9.4146243"><ele>241.99999999999997</ele><time>2026-03-27T08:39:35.167Z</time></trkpt><trkpt lat="45.8477169" lon="9.4147214"><ele>242.0</ele><time>2026-03-27T08:39:54.005Z</time></trkpt><trkpt lat="45.8476852" lon="9.4148029"><ele>242.0</ele><time>2026-03-27T08:40:01.139Z</time></trkpt><trkpt lat="45.8476169" lon="9.4148316"><ele>246.00000000000003</ele><time>2026-03-27T08:40:10.142Z</time></trkpt><trkpt lat="45.8475623" lon="9.414887"><ele>250.0</ele><time>2026-03-27T08:40:21.211Z</time></trkpt><trkpt lat="45.8475283" lon="9.4149704"><ele>254.0</ele><time>2026-03-27T08:40:34.21Z</time></trkpt><trkpt lat="45.8474757" lon="9.4150265"><ele>258.0</ele><time>2026-03-27T08:40:55.219Z</time></trkpt><trkpt lat="45.8474045" lon="9.4150351"><ele>262.0</ele><time>2026-03-27T08:41:01.147Z</time></trkpt><trkpt lat="45.8472493" lon="9.4150376"><ele>266.0</ele><time>2026-03-27T08:41:13.107Z</time></trkpt><trkpt lat="45.8471769" lon="9.4150204"><ele>266.0</ele><time>2026-03-27T08:41:17.163Z</time></trkpt><trkpt lat="45.8470603" lon="9.4149927"><ele>266.0</ele><time>2026-03-27T08:41:20.767Z</time></trkpt><trkpt lat="45.8469915" lon="9.4149872"><ele>266.0</ele><time>2026-03-27T08:41:23.195Z</time></trkpt><trkpt lat="45.8469218" lon="9.4149661"><ele>266.0</ele><time>2026-03-27T08:41:27.146Z</time></trkpt><trkpt lat="45.8468571" lon="9.4149556"><ele>266.0</ele><time>2026-03-27T08:41:33.168Z</time></trkpt><trkpt lat="45.8467775" lon="9.414951"><ele>266.0</ele><time>2026-03-27T08:41:46.179Z</time></trkpt><trkpt lat="45.8467103" lon="9.4149651"><ele>264.2857142857143</ele><time>2026-03-27T08:42:02.196Z</time></trkpt><trkpt lat="45.8466476" lon="9.4149804"><ele>262.57142857142856</ele><time>2026-03-27T08:42:39.102Z</time></trkpt><trkpt lat="45.8466212" lon="9.415067"><ele>260.8571428571429</ele><time>2026-03-27T08:42:43.171Z</time></trkpt><trkpt lat="45.8466061" lon="9.4151572"><ele>259.1428571428571</ele><time>2026-03-27T08:42:47.123Z</time></trkpt><trkpt lat="45.8466159" lon="9.4152524"><ele>257.42857142857144</ele><time>2026-03-27T08:42:53.154Z</time></trkpt><trkpt lat="45.846631" lon="9.4153522"><ele>255.71428571428572</ele><time>2026-03-27T08:43:00.123Z</time></trkpt><trkpt lat="45.846613" lon="9.4154433"><ele>254.0</ele><time>2026-03-27T08:43:04.178Z</time></trkpt><trkpt lat="45.8465974" lon="9.4155344"><ele>258.7142857142857</ele><time>2026-03-27T08:43:15.203Z</time></trkpt><trkpt lat="45.8465464" lon="9.4155879"><ele>263.42857142857144</ele><time>2026-03-27T08:43:21.13Z</time></trkpt><trkpt lat="45.8464977" lon="9.4156508"><ele>268.1428571428571</ele><time>2026-03-27T08:43:28.203Z</time></trkpt><trkpt lat="45.8464479" lon="9.4157069"><ele>272.8571428571429</ele><time>2026-03-27T08:43:36.211Z</time></trkpt><trkpt lat="45.8463846" lon="9.4157343"><ele>277.57142857142856</ele><time>2026-03-27T08:43:45.154Z</time></trkpt><trkpt lat="45.8463269" lon="9.4157961"><ele>282.2857142857143</ele><time>2026-03-27T08:43:51.187Z</time></trkpt><trkpt lat="45.846297" lon="9.4158797"><ele>287.0</ele><time>2026-03-27T08:44:03.147Z</time></trkpt><trkpt lat="45.8462948" lon="9.4159733"><ele>287.0</ele><time>2026-03-27T08:44:27.182Z</time></trkpt><trkpt lat="45.8463991" lon="9.4160733"><ele>287.0</ele><time>2026-03-27T08:44:59.203Z</time></trkpt><trkpt lat="45.8463669" lon="9.4161518"><ele>287.0</ele><time>2026-03-27T08:45:36.123Z</time></trkpt><trkpt lat="45.8464179" lon="9.4162141"><ele>287.0</ele><time>2026-03-27T08:45:48.186Z</time></trkpt><trkpt lat="45.8463709" lon="9.4162791"><ele>287.0</ele><time>2026-03-27T08:46:03.162Z</time></trkpt><trkpt lat="45.8463798" lon="9.4163783"><ele>287.0</ele><time>2026-03-27T08:46:18.139Z</time></trkpt><trkpt lat="45.8465001" lon="9.4163919"><ele>292.42857142857144</ele><time>2026-03-27T08:46:45.179Z</time></trkpt><trkpt lat="45.8465608" lon="9.4164165"><ele>297.8571428571429</ele><time>2026-03-27T08:47:04.106Z</time></trkpt><trkpt lat="45.846587" lon="9.4165115"><ele>303.2857142857143</ele><time>2026-03-27T08:47:19.187Z</time></trkpt><trkpt lat="45.8466267" lon="9.416582"><ele>308.7142857142857</ele><time>2026-03-27T08:47:26.165Z</time></trkpt><trkpt lat="45.846666" lon="9.4166588"><ele>314.14285714285717</ele><time>2026-03-27T08:47:36.139Z</time></trkpt><trkpt lat="45.8466075" lon="9.4166959"><ele>319.57142857142856</ele><time>2026-03-27T08:47:46.123Z</time></trkpt><trkpt lat="45.8465498" lon="9.4167389"><ele>325.0</ele><time>2026-03-27T08:48:06.195Z</time></trkpt><trkpt lat="45.8464923" lon="9.4167968"><ele>325.0</ele><time>2026-03-27T08:48:21.125Z</time></trkpt><trkpt lat="45.8464222" lon="9.4168077"><ele>325.0</ele><time>2026-03-27T08:48:32.195Z</time></trkpt><trkpt lat="45.8463571" lon="9.4166849"><ele>325.0</ele><time>2026-03-27T08:49:00.181Z</time></trkpt><trkpt lat="45.8462946" lon="9.4166714"><ele>325.0</ele><time>2026-03-27T08:49:18.162Z</time></trkpt><trkpt lat="45.8462315" lon="9.4168504"><ele>325.0</ele><time>2026-03-27T08:50:09.122Z</time></trkpt><trkpt lat="45.846209" lon="9.4169688"><ele>325.0</ele><time>2026-03-27T08:51:00.186Z</time></trkpt><trkpt lat="45.8462145" lon="9.4170626"><ele>325.0</ele><time>2026-03-27T08:51:10.171Z</time></trkpt><trkpt lat="45.8462001" lon="9.4171551"><ele>325.0</ele><time>2026-03-27T08:51:49.17Z</time></trkpt><trkpt lat="45.846214" lon="9.4172473"><ele>325.0</ele><time>2026-03-27T08:52:17.147Z</time></trkpt><trkpt lat="45.8462712" lon="9.4172016"><ele>325.0</ele><time>2026-03-27T08:52:25.154Z</time></trkpt><trkpt lat="45.8463422" lon="9.4171923"><ele>325.0</ele><time>2026-03-27T08:52:34.202Z</time></trkpt><trkpt lat="45.8463669" lon="9.4172772"><ele>325.0</ele><time>2026-03-27T08:52:47.202Z</time></trkpt><trkpt lat="45.8464298" lon="9.4172542"><ele>325.0</ele><time>2026-03-27T08:53:16.219Z</time></trkpt><trkpt lat="45.8464993" lon="9.417186"><ele>325.0</ele><time>2026-03-27T08:53:31.195Z</time></trkpt><trkpt lat="45.8465685" lon="9.4171678"><ele>325.0</ele><time>2026-03-27T08:53:36.187Z</time></trkpt><trkpt lat="45.8466233" lon="9.4171192"><ele>325.0</ele><time>2026-03-27T08:53:51.163Z</time></trkpt><trkpt lat="45.8465639" lon="9.4171826"><ele>325.0</ele><time>2026-03-27T08:54:18.203Z</time></trkpt><trkpt lat="45.8466347" lon="9.4171784"><ele>325.0</ele><time>2026-03-27T08:54:41.105Z</time></trkpt><trkpt lat="45.8466566" lon="9.417266"><ele>325.0</ele><time>2026-03-27T08:54:51.171Z</time></trkpt><trkpt lat="45.846591" lon="9.4172344"><ele>325.0</ele><time>2026-03-27T08:54:58.138Z</time></trkpt><trkpt lat="45.8465359" lon="9.4171778"><ele>325.0</ele><time>2026-03-27T08:55:05.106Z</time></trkpt><trkpt lat="45.8465477" lon="9.4170851"><ele>325.0</ele><time>2026-03-27T08:55:17.171Z</time></trkpt><trkpt lat="45.8465269" lon="9.4169934"><ele>325.0</ele><time>2026-03-27T08:55:29.131Z</time></trkpt><trkpt lat="45.8465018" lon="9.4170837"><ele>325.0</ele><time>2026-03-27T08:55:40.155Z</time></trkpt><trkpt lat="45.8465482" lon="9.4170226"><ele>325.0</ele><time>2026-03-27T08:55:58.146Z</time></trkpt><trkpt lat="45.8464705" lon="9.4170538"><ele>325.0</ele><time>2026-03-27T08:56:07.194Z</time></trkpt><trkpt lat="45.8464084" lon="9.4170227"><ele>325.0</ele><time>2026-03-27T08:56:13.122Z</time></trkpt><trkpt lat="45.8464768" lon="9.416969"><ele>325.0</ele><time>2026-03-27T08:56:19.155Z</time></trkpt><trkpt lat="45.8464614" lon="9.4170681"><ele>325.0</ele><time>2026-03-27T08:56:24.147Z</time></trkpt><trkpt lat="45.8464419" lon="9.4171597"><ele>325.0</ele><time>2026-03-27T08:56:48.171Z</time></trkpt><trkpt lat="45.8464539" lon="9.4172671"><ele>325.0</ele><time>2026-03-27T08:57:01.171Z</time></trkpt><trkpt lat="45.8464751" lon="9.4173653"><ele>325.0</ele><time>2026-03-27T08:57:08.139Z</time></trkpt><trkpt lat="45.8466037" lon="9.4174078"><ele>328.1428571428571</ele><time>2026-03-27T08:57:11.155Z</time></trkpt><trkpt lat="45.8466715" lon="9.4174376"><ele>331.28571428571433</ele><time>2026-03-27T08:57:20.203Z</time></trkpt><trkpt lat="45.8467281" lon="9.4173966"><ele>334.42857142857144</ele><time>2026-03-27T08:57:29.147Z</time></trkpt><trkpt lat="45.8467612" lon="9.4174761"><ele>337.57142857142856</ele><time>2026-03-27T08:57:36.219Z</time></trkpt><trkpt lat="45.8467548" lon="9.4175697"><ele>340.71428571428567</ele><time>2026-03-27T08:58:01.179Z</time></trkpt><trkpt lat="45.8467803" lon="9.4176582"><ele>343.8571428571429</ele><time>2026-03-27T08:58:09.187Z</time></trkpt><trkpt lat="45.8467923" lon="9.4177614"><ele>347.0</ele><time>2026-03-27T08:58:32.171Z</time></trkpt><trkpt lat="45.8467284" lon="9.4177658"><ele>347.0</ele><time>2026-03-27T08:58:56.168Z</time></trkpt><trkpt lat="45.8466661" lon="9.4177482"><ele>347.0</ele><time>2026-03-27T08:59:55.163Z</time></trkpt><trkpt lat="45.8466024" lon="9.4177533"><ele>347.0</ele><time>2026-03-27T09:00:05.147Z</time></trkpt><trkpt lat="45.8465703" lon="9.4176697"><ele>347.0</ele><time>2026-03-27T09:01:15.139Z</time></trkpt><trkpt lat="45.8465427" lon="9.4175524"><ele>347.0</ele><time>2026-03-27T09:01:39.162Z</time></trkpt><trkpt lat="45.8465519" lon="9.4176705"><ele>347.0</ele><time>2026-03-27T09:03:05.171Z</time></trkpt><trkpt lat="45.8465405" lon="9.4177868"><ele>347.0</ele><time>2026-03-27T09:03:33.146Z</time></trkpt><trkpt lat="45.8464883" lon="9.4179525"><ele>350.8</ele><time>2026-03-27T09:03:53.218Z</time></trkpt><trkpt lat="45.8464338" lon="9.4180036"><ele>354.6</ele><time>2026-03-27T09:04:01.122Z</time></trkpt><trkpt lat="45.8463806" lon="9.4180598"><ele>358.40000000000003</ele><time>2026-03-27T09:04:10.047Z</time></trkpt><trkpt lat="45.8463684" lon="9.4181815"><ele>362.20000000000005</ele><time>2026-03-27T09:05:39.195Z</time></trkpt><trkpt lat="45.8462661" lon="9.4183891"><ele>366.0</ele><time>2026-03-27T09:06:54.178Z</time></trkpt><trkpt lat="45.8462207" lon="9.4184577"><ele>366.0</ele><time>2026-03-27T09:07:16.227Z</time></trkpt><trkpt lat="45.8462495" lon="9.4185418"><ele>366.0</ele><time>2026-03-27T09:07:34.219Z</time></trkpt><trkpt lat="45.8463121" lon="9.4185687"><ele>366.0</ele><time>2026-03-27T09:08:05.211Z</time></trkpt><trkpt lat="45.846371" lon="9.4186117"><ele>366.0</ele><time>2026-03-27T09:08:15.195Z</time></trkpt><trkpt lat="45.8464364" lon="9.4186158"><ele>366.0</ele><time>2026-03-27T09:08:50.138Z</time></trkpt><trkpt lat="45.8464898" lon="9.4185512"><ele>366.0</ele><time>2026-03-27T09:08:59.186Z</time></trkpt><trkpt lat="45.8465529" lon="9.4185579"><ele>366.0</ele><time>2026-03-27T09:09:09.171Z</time></trkpt><trkpt lat="45.8465855" lon="9.4184791"><ele>366.0</ele><time>2026-03-27T09:09:29.139Z</time></trkpt><trkpt lat="45.846604" lon="9.418374"><ele>366.0</ele><time>2026-03-27T09:10:09.178Z</time></trkpt><trkpt lat="45.8465861" lon="9.4182816"><ele>366.0</ele><time>2026-03-27T09:10:20.109Z</time></trkpt><trkpt lat="45.8465558" lon="9.4182016"><ele>366.0</ele><time>2026-03-27T09:10:29.146Z</time></trkpt><trkpt lat="45.8466033" lon="9.4181422"><ele>366.0</ele><time>2026-03-27T09:10:46.202Z</time></trkpt><trkpt lat="45.8466864" lon="9.4181164"><ele>366.0</ele><time>2026-03-27T09:11:06.171Z</time></trkpt><trkpt lat="45.8467527" lon="9.4181521"><ele>366.0</ele><time>2026-03-27T09:11:21.147Z</time></trkpt><trkpt lat="45.8468152" lon="9.4181242"><ele>367.6666666666667</ele><time>2026-03-27T09:11:34.147Z</time></trkpt><trkpt lat="45.8469066" lon="9.4181295"><ele>369.3333333333333</ele><time>2026-03-27T09:12:08.155Z</time></trkpt><trkpt lat="45.8469761" lon="9.4181303"><ele>371.0</ele><time>2026-03-27T09:12:32.179Z</time></trkpt><trkpt lat="45.8470655" lon="9.4180244"><ele>372.66666666666663</ele><time>2026-03-27T09:13:03.171Z</time></trkpt><trkpt lat="45.8471243" lon="9.4180601"><ele>374.3333333333333</ele><time>2026-03-27T09:13:20.227Z</time></trkpt><trkpt lat="45.8471928" lon="9.4180761"><ele>376.0</ele><time>2026-03-27T09:13:29.127Z</time></trkpt><trkpt lat="45.8472581" lon="9.4180931"><ele>376.0</ele><time>2026-03-27T09:13:40.195Z</time></trkpt><trkpt lat="45.8473207" lon="9.4181405"><ele>376.0</ele><time>2026-03-27T09:14:34.17Z</time></trkpt><trkpt lat="45.8473842" lon="9.4182043"><ele>376.0</ele><time>2026-03-27T09:14:36.147Z</time></trkpt><trkpt lat="45.8474346" lon="9.418275"><ele>376.0</ele><time>2026-03-27T09:14:42.179Z</time></trkpt><trkpt lat="45.8472898" lon="9.4182076"><ele>376.0</ele><time>2026-03-27T09:14:57.155Z</time></trkpt><trkpt lat="45.8473478" lon="9.418248"><ele>376.0</ele><time>2026-03-27T09:15:07.139Z</time></trkpt><trkpt lat="45.8474272" lon="9.4183075"><ele>376.0</ele><time>2026-03-27T09:15:34.179Z</time></trkpt><trkpt lat="45.8475172" lon="9.4183108"><ele>376.0</ele><time>2026-03-27T09:16:07.146Z</time></trkpt><trkpt lat="45.8476136" lon="9.4183762"><ele>376.0</ele><time>2026-03-27T09:16:39.179Z</time></trkpt><trkpt lat="45.8476522" lon="9.4184593"><ele>376.0</ele><time>2026-03-27T09:16:54.155Z</time></trkpt><trkpt lat="45.8477029" lon="9.418531"><ele>376.0</ele><time>2026-03-27T09:17:00.186Z</time></trkpt><trkpt lat="45.847762" lon="9.4185834"><ele>376.0</ele><time>2026-03-27T09:17:07.154Z</time></trkpt><trkpt lat="45.8478116" lon="9.4186456"><ele>376.7142857142857</ele><time>2026-03-27T09:17:13.187Z</time></trkpt><trkpt lat="45.8478426" lon="9.4187333"><ele>377.42857142857144</ele><time>2026-03-27T09:17:18.178Z</time></trkpt><trkpt lat="45.8478696" lon="9.4188197"><ele>378.1428571428571</ele><time>2026-03-27T09:17:26.22Z</time></trkpt><trkpt lat="45.8479032" lon="9.4189137"><ele>378.8571428571429</ele><time>2026-03-27T09:17:33.207Z</time></trkpt><trkpt lat="45.847939" lon="9.4190017"><ele>379.5714285714286</ele><time>2026-03-27T09:17:39.187Z</time></trkpt><trkpt lat="45.8479805" lon="9.4190787"><ele>380.2857142857143</ele><time>2026-03-27T09:17:51.147Z</time></trkpt><trkpt lat="45.8480385" lon="9.4191241"><ele>381.0</ele><time>2026-03-27T09:17:59.167Z</time></trkpt><trkpt lat="45.8480812" lon="9.4191956"><ele>382.2857142857143</ele><time>2026-03-27T09:18:08.087Z</time></trkpt><trkpt lat="45.8481209" lon="9.419266"><ele>383.5714285714286</ele><time>2026-03-27T09:18:15.171Z</time></trkpt><trkpt lat="45.8481208" lon="9.4193714"><ele>384.8571428571429</ele><time>2026-03-27T09:18:30.207Z</time></trkpt><trkpt lat="45.8481021" lon="9.4194913"><ele>386.1428571428571</ele><time>2026-03-27T09:18:47.203Z</time></trkpt><trkpt lat="45.8480803" lon="9.4195893"><ele>387.42857142857144</ele><time>2026-03-27T09:18:53.13Z</time></trkpt><trkpt lat="45.8480948" lon="9.4196818"><ele>388.7142857142857</ele><time>2026-03-27T09:19:04.048Z</time></trkpt><trkpt lat="45.8481304" lon="9.4197621"><ele>390.0</ele><time>2026-03-27T09:19:11.123Z</time></trkpt><trkpt lat="45.8481444" lon="9.4198541"><ele>392.85714285714283</ele><time>2026-03-27T09:19:22.147Z</time></trkpt><trkpt lat="45.8481291" lon="9.419952"><ele>395.71428571428567</ele><time>2026-03-27T09:19:31.195Z</time></trkpt><trkpt lat="45.8480933" lon="9.4200319"><ele>398.57142857142856</ele><time>2026-03-27T09:19:38.163Z</time></trkpt><trkpt lat="45.84807" lon="9.420157"><ele>401.42857142857144</ele><time>2026-03-27T09:19:55.115Z</time></trkpt><trkpt lat="45.8480663" lon="9.4202632"><ele>404.2857142857143</ele><time>2026-03-27T09:19:59.17Z</time></trkpt><trkpt lat="45.8480887" lon="9.42036"><ele>407.14285714285717</ele><time>2026-03-27T09:20:05.203Z</time></trkpt><trkpt lat="45.8480858" lon="9.4204567"><ele>410.0</ele><time>2026-03-27T09:20:24.131Z</time></trkpt><trkpt lat="45.8480402" lon="9.4205214"><ele>411.5714285714286</ele><time>2026-03-27T09:20:29.123Z</time></trkpt><trkpt lat="45.8480229" lon="9.4206083"><ele>413.1428571428571</ele><time>2026-03-27T09:20:46.101Z</time></trkpt><trkpt lat="45.8480354" lon="9.4207086"><ele>414.7142857142857</ele><time>2026-03-27T09:20:53.147Z</time></trkpt><trkpt lat="45.8480566" lon="9.4207987"><ele>416.28571428571433</ele><time>2026-03-27T09:21:16.131Z</time></trkpt><trkpt lat="45.8480376" lon="9.4209014"><ele>417.8571428571429</ele><time>2026-03-27T09:21:21.123Z</time></trkpt><trkpt lat="45.8480098" lon="9.4209937"><ele>419.42857142857144</ele><time>2026-03-27T09:21:26.115Z</time></trkpt><trkpt lat="45.8479969" lon="9.421089"><ele>421.0</ele><time>2026-03-27T09:21:36.203Z</time></trkpt><trkpt lat="45.8479377" lon="9.4211381"><ele>421.00000000000006</ele><time>2026-03-27T09:21:46.062Z</time></trkpt><trkpt lat="45.8479372" lon="9.4212487"><ele>421.0</ele><time>2026-03-27T09:22:06.154Z</time></trkpt><trkpt lat="45.8479273" lon="9.4213441"><ele>421.0</ele><time>2026-03-27T09:22:15.203Z</time></trkpt><trkpt lat="45.8479046" lon="9.4214361"><ele>421.0</ele><time>2026-03-27T09:22:23.21Z</time></trkpt><trkpt lat="45.8479043" lon="9.4215362"><ele>421.00000000000006</ele><time>2026-03-27T09:22:35.222Z</time></trkpt><trkpt lat="45.8479218" lon="9.4216323"><ele>421.0</ele><time>2026-03-27T09:22:43.127Z</time></trkpt><trkpt lat="45.8480108" lon="9.4217145"><ele>421.14285714285717</ele><time>2026-03-27T09:23:11.181Z</time></trkpt><trkpt lat="45.8480661" lon="9.42178"><ele>421.2857142857143</ele><time>2026-03-27T09:23:16.141Z</time></trkpt><trkpt lat="45.8480684" lon="9.4218764"><ele>421.42857142857144</ele><time>2026-03-27T09:23:21.243Z</time></trkpt><trkpt lat="45.8479789" lon="9.4218799"><ele>421.57142857142856</ele><time>2026-03-27T09:23:33.109Z</time></trkpt><trkpt lat="45.84792" lon="9.4219364"><ele>421.7142857142857</ele><time>2026-03-27T09:23:37.153Z</time></trkpt><trkpt lat="45.8478524" lon="9.4219618"><ele>421.8571428571429</ele><time>2026-03-27T09:23:44.225Z</time></trkpt><trkpt lat="45.8479139" lon="9.4219315"><ele>422.0</ele><time>2026-03-27T09:23:54.105Z</time></trkpt><trkpt lat="45.8479901" lon="9.4220239"><ele>422.0</ele><time>2026-03-27T09:23:59.197Z</time></trkpt><trkpt lat="45.8480094" lon="9.4221229"><ele>422.0</ele><time>2026-03-27T09:24:02.109Z</time></trkpt><trkpt lat="45.8479582" lon="9.4220696"><ele>422.0</ele><time>2026-03-27T09:24:21.141Z</time></trkpt><trkpt lat="45.8479317" lon="9.4219839"><ele>422.0</ele><time>2026-03-27T09:24:28.109Z</time></trkpt><trkpt lat="45.8479855" lon="9.4219279"><ele>422.0</ele><time>2026-03-27T09:25:00.141Z</time></trkpt><trkpt lat="45.8480254" lon="9.4218491"><ele>422.0</ele><time>2026-03-27T09:25:06.172Z</time></trkpt><trkpt lat="45.8479694" lon="9.4217991"><ele>422.0</ele><time>2026-03-27T09:25:36.125Z</time></trkpt><trkpt lat="45.8480286" lon="9.4218363"><ele>422.0</ele><time>2026-03-27T09:25:58.138Z</time></trkpt><trkpt lat="45.848065" lon="9.4219147"><ele>422.0</ele><time>2026-03-27T09:26:22.199Z</time></trkpt><trkpt lat="45.8480558" lon="9.4220148"><ele>422.0</ele><time>2026-03-27T09:26:40.189Z</time></trkpt><trkpt lat="45.8480763" lon="9.421879"><ele>422.0</ele><time>2026-03-27T09:27:04.097Z</time></trkpt><trkpt lat="45.8480341" lon="9.4218042"><ele>422.0</ele><time>2026-03-27T09:27:11.181Z</time></trkpt><trkpt lat="45.8479716" lon="9.4218225"><ele>422.0</ele><time>2026-03-27T09:27:43.177Z</time></trkpt><trkpt lat="45.8480143" lon="9.4219101"><ele>422.0</ele><time>2026-03-27T09:28:34.173Z</time></trkpt><trkpt lat="45.847989" lon="9.4219976"><ele>422.0</ele><time>2026-03-27T09:28:42.181Z</time></trkpt><trkpt lat="45.847929" lon="9.4220307"><ele>422.0</ele><time>2026-03-27T09:28:52.165Z</time></trkpt><trkpt lat="45.8479667" lon="9.4221195"><ele>422.0</ele><time>2026-03-27T09:29:23.157Z</time></trkpt><trkpt lat="45.8480188" lon="9.4221842"><ele>422.0</ele><time>2026-03-27T09:29:32.205Z</time></trkpt><trkpt lat="45.8480366" lon="9.4222819"><ele>422.0</ele><time>2026-03-27T09:29:41.149Z</time></trkpt><trkpt lat="45.8480327" lon="9.4224116"><ele>422.0</ele><time>2026-03-27T09:30:02.157Z</time></trkpt><trkpt lat="45.8480476" lon="9.4225085"><ele>422.0</ele><time>2026-03-27T09:30:13.098Z</time></trkpt><trkpt lat="45.8481096" lon="9.4225259"><ele>422.99999999999994</ele><time>2026-03-27T09:30:18.079Z</time></trkpt><trkpt lat="45.8481707" lon="9.4225658"><ele>424.0</ele><time>2026-03-27T09:30:25.14Z</time></trkpt><trkpt lat="45.8482007" lon="9.4227333"><ele>425.0</ele><time>2026-03-27T09:30:57.173Z</time></trkpt><trkpt lat="45.848239" lon="9.4228054"><ele>426.0</ele><time>2026-03-27T09:31:09.133Z</time></trkpt><trkpt lat="45.8482732" lon="9.4228946"><ele>426.99999999999994</ele><time>2026-03-27T09:31:16.205Z</time></trkpt><trkpt lat="45.8482651" lon="9.4229929"><ele>428.0</ele><time>2026-03-27T09:31:22.118Z</time></trkpt><trkpt lat="45.846439" lon="9.4269956"><ele>436.49999999999994</ele><time>2026-03-27T09:31:54.166Z</time></trkpt><trkpt lat="45.8465045" lon="9.426998"><ele>445.0</ele><time>2026-03-27T09:31:56.245Z</time></trkpt><trkpt lat="45.8465778" lon="9.4270234"><ele>453.5</ele><time>2026-03-27T09:32:01.134Z</time></trkpt><trkpt lat="45.8466363" lon="9.4270576"><ele>462.0</ele><time>2026-03-27T09:32:09.144Z</time></trkpt><trkpt lat="45.8467523" lon="9.4270844"><ele>470.49999999999994</ele><time>2026-03-27T09:32:11.121Z</time></trkpt><trkpt lat="45.846824" lon="9.4271082"><ele>479.0</ele><time>2026-03-27T09:32:21.106Z</time></trkpt><trkpt lat="45.8468737" lon="9.4271689"><ele>478.99999999999994</ele><time>2026-03-27T09:32:29.109Z</time></trkpt><trkpt lat="45.8469256" lon="9.4272289"><ele>479.0</ele><time>2026-03-27T09:32:38.156Z</time></trkpt><trkpt lat="45.8469762" lon="9.4272836"><ele>479.0</ele><time>2026-03-27T09:33:32.134Z</time></trkpt><trkpt lat="45.8470709" lon="9.4272112"><ele>479.0</ele><time>2026-03-27T09:34:26.111Z</time></trkpt><trkpt lat="45.8471613" lon="9.4271709"><ele>478.99999999999994</ele><time>2026-03-27T09:34:31.107Z</time></trkpt><trkpt lat="45.8472314" lon="9.4271294"><ele>479.0</ele><time>2026-03-27T09:34:36.199Z</time></trkpt><trkpt lat="45.8472834" lon="9.4271876"><ele>479.0</ele><time>2026-03-27T09:34:52.214Z</time></trkpt><trkpt lat="45.8473478" lon="9.4271823"><ele>479.0</ele><time>2026-03-27T09:35:03.134Z</time></trkpt><trkpt lat="45.8474796" lon="9.4271139"><ele>479.0</ele><time>2026-03-27T09:35:15.198Z</time></trkpt><trkpt lat="45.8476117" lon="9.4271233"><ele>479.0</ele><time>2026-03-27T09:35:55.11Z</time></trkpt><trkpt lat="45.84768" lon="9.4270583"><ele>479.0</ele><time>2026-03-27T09:36:38.111Z</time></trkpt><trkpt lat="45.8477533" lon="9.4270367"><ele>479.0</ele><time>2026-03-27T09:36:49.114Z</time></trkpt><trkpt lat="45.8478133" lon="9.4269783"><ele>479.0</ele><time>2026-03-27T09:36:56.106Z</time></trkpt><trkpt lat="45.8473183" lon="9.4265617"><ele>479.0</ele><time>2026-03-27T09:37:21.111Z</time></trkpt><trkpt lat="45.84753" lon="9.4267067"><ele>479.0</ele><time>2026-03-27T09:37:22.112Z</time></trkpt><trkpt lat="45.8476467" lon="9.4268067"><ele>479.0</ele><time>2026-03-27T09:37:23.113Z</time></trkpt><trkpt lat="45.84785" lon="9.4269917"><ele>478.99999999999994</ele><time>2026-03-27T09:37:24.113Z</time></trkpt><trkpt lat="45.8478214" lon="9.4270757"><ele>479.0</ele><time>2026-03-27T09:37:57.23Z</time></trkpt><trkpt lat="45.8477087" lon="9.4271177"><ele>479.0</ele><time>2026-03-27T09:38:03.158Z</time></trkpt><trkpt lat="45.8476387" lon="9.4271197"><ele>479.0</ele><time>2026-03-27T09:38:08.15Z</time></trkpt><trkpt lat="45.8475756" lon="9.4271057"><ele>478.99999999999994</ele><time>2026-03-27T09:38:19.242Z</time></trkpt><trkpt lat="45.8475352" lon="9.4271843"><ele>479.0</ele><time>2026-03-27T09:38:25.207Z</time></trkpt><trkpt lat="45.8474916" lon="9.427265"><ele>481.8333333333333</ele><time>2026-03-27T09:38:31.135Z</time></trkpt><trkpt lat="45.8474469" lon="9.4273469"><ele>484.66666666666663</ele><time>2026-03-27T09:38:38.206Z</time></trkpt><trkpt lat="45.8474037" lon="9.4274132"><ele>487.5</ele><time>2026-03-27T09:38:45.175Z</time></trkpt><trkpt lat="45.8473576" lon="9.4274788"><ele>490.33333333333337</ele><time>2026-03-27T09:38:51.206Z</time></trkpt><trkpt lat="45.8473059" lon="9.4275397"><ele>493.1666666666667</ele><time>2026-03-27T09:38:58.057Z</time></trkpt><trkpt lat="45.847217" lon="9.427663"><ele>496.0</ele><time>2026-03-27T09:39:14.191Z</time></trkpt><trkpt lat="45.8471508" lon="9.4278"><ele>496.0</ele><time>2026-03-27T09:39:32.183Z</time></trkpt><trkpt lat="45.8471028" lon="9.4278875"><ele>496.00000000000006</ele><time>2026-03-27T09:39:37.174Z</time></trkpt><trkpt lat="45.8470513" lon="9.4279675"><ele>496.0</ele><time>2026-03-27T09:39:51.215Z</time></trkpt><trkpt lat="45.8470201" lon="9.4280507"><ele>496.0</ele><time>2026-03-27T09:39:55.166Z</time></trkpt><trkpt lat="45.8470065" lon="9.428139"><ele>496.00000000000006</ele><time>2026-03-27T09:40:04.216Z</time></trkpt><trkpt lat="45.8469382" lon="9.4282147"><ele>496.0</ele><time>2026-03-27T09:40:20.127Z</time></trkpt><trkpt lat="45.846886" lon="9.4282726"><ele>496.0</ele><time>2026-03-27T09:40:25.222Z</time></trkpt><trkpt lat="45.8468481" lon="9.4283451"><ele>498.42857142857144</ele><time>2026-03-27T09:40:32.19Z</time></trkpt><trkpt lat="45.8468164" lon="9.4284368"><ele>500.8571428571429</ele><time>2026-03-27T09:40:53.199Z</time></trkpt><trkpt lat="45.8467762" lon="9.4285082"><ele>503.28571428571433</ele><time>2026-03-27T09:40:59.127Z</time></trkpt><trkpt lat="45.8467321" lon="9.4285893"><ele>505.7142857142858</ele><time>2026-03-27T09:41:16.162Z</time></trkpt><trkpt lat="45.8466891" lon="9.4286704"><ele>508.14285714285717</ele><time>2026-03-27T09:41:22.11Z</time></trkpt><trkpt lat="45.8466557" lon="9.4287499"><ele>510.57142857142867</ele><time>2026-03-27T09:41:29.201Z</time></trkpt><trkpt lat="45.8465984" lon="9.4287888"><ele>513.0</ele><time>2026-03-27T09:41:40.042Z</time></trkpt><trkpt lat="45.8465491" lon="9.4288734"><ele>515.0000000000001</ele><time>2026-03-27T09:41:51.127Z</time></trkpt><trkpt lat="45.846522" lon="9.4289591"><ele>517.0</ele><time>2026-03-27T09:41:58.198Z</time></trkpt><trkpt lat="45.846502" lon="9.4290522"><ele>519.0</ele><time>2026-03-27T09:42:20.143Z</time></trkpt><trkpt lat="45.8464837" lon="9.4291468"><ele>521.0</ele><time>2026-03-27T09:42:38.134Z</time></trkpt><trkpt lat="45.8464572" lon="9.4292305"><ele>523.0</ele><time>2026-03-27T09:42:47.162Z</time></trkpt><trkpt lat="45.8464482" lon="9.4293221"><ele>525.0000000000001</ele><time>2026-03-27T09:42:57.167Z</time></trkpt><trkpt lat="45.8463923" lon="9.4294406"><ele>527.0</ele><time>2026-03-27T09:43:15.159Z</time></trkpt><trkpt lat="45.8463469" lon="9.4295101"><ele>527.0000000000001</ele><time>2026-03-27T09:43:24.207Z</time></trkpt><trkpt lat="45.8462593" lon="9.4295306"><ele>527.0</ele><time>2026-03-27T09:43:40.119Z</time></trkpt><trkpt lat="45.8461994" lon="9.4295645"><ele>527.0</ele><time>2026-03-27T09:43:45.215Z</time></trkpt><trkpt lat="45.8461729" lon="9.4296517"><ele>527.0</ele><time>2026-03-27T09:43:57.176Z</time></trkpt><trkpt lat="45.8462221" lon="9.4297171"><ele>527.0</ele><time>2026-03-27T09:44:09.135Z</time></trkpt><trkpt lat="45.8462863" lon="9.4297247"><ele>527.0000000000001</ele><time>2026-03-27T09:44:18.182Z</time></trkpt><trkpt lat="45.8463467" lon="9.4296769"><ele>527.0</ele><time>2026-03-27T09:44:29.207Z</time></trkpt><trkpt lat="45.8464186" lon="9.4297047"><ele>529.7142857142858</ele><time>2026-03-27T09:44:42.206Z</time></trkpt><trkpt lat="45.8464859" lon="9.4297111"><ele>532.4285714285714</ele><time>2026-03-27T09:44:50.215Z</time></trkpt><trkpt lat="45.8465311" lon="9.4297788"><ele>535.1428571428571</ele><time>2026-03-27T09:45:00.199Z</time></trkpt><trkpt lat="45.8464995" lon="9.4298759"><ele>537.8571428571429</ele><time>2026-03-27T09:45:28.177Z</time></trkpt><trkpt lat="45.8464579" lon="9.4299442"><ele>540.5714285714286</ele><time>2026-03-27T09:45:33.166Z</time></trkpt><trkpt lat="45.8463946" lon="9.4299763"><ele>543.2857142857143</ele><time>2026-03-27T09:45:41.174Z</time></trkpt><trkpt lat="45.8463258" lon="9.4299852"><ele>546.0</ele><time>2026-03-27T09:45:49.182Z</time></trkpt><trkpt lat="45.8462609" lon="9.4300016"><ele>546.0</ele><time>2026-03-27T09:45:56.201Z</time></trkpt><trkpt lat="45.8461771" lon="9.4300104"><ele>546.0</ele><time>2026-03-27T09:46:14.16Z</time></trkpt><trkpt lat="45.8461094" lon="9.4300197"><ele>546.0</ele><time>2026-03-27T09:46:27.142Z</time></trkpt><trkpt lat="45.8460478" lon="9.430045"><ele>546.0</ele><time>2026-03-27T09:46:35.041Z</time></trkpt><trkpt lat="45.8460655" lon="9.4301372"><ele>546.0</ele><time>2026-03-27T09:46:46.175Z</time></trkpt><trkpt lat="45.8461007" lon="9.4302161"><ele>546.0</ele><time>2026-03-27T09:46:56.042Z</time></trkpt><trkpt lat="45.8461518" lon="9.4302855"><ele>546.0</ele><time>2026-03-27T09:47:06.143Z</time></trkpt><trkpt lat="45.8462028" lon="9.4303452"><ele>546.0</ele><time>2026-03-27T09:47:14.151Z</time></trkpt><trkpt lat="45.8462398" lon="9.430422"><ele>546.0</ele><time>2026-03-27T09:47:22.159Z</time></trkpt><trkpt lat="45.8462943" lon="9.4304716"><ele>546.0</ele><time>2026-03-27T09:47:29.126Z</time></trkpt><trkpt lat="45.8462983" lon="9.4305685"><ele>546.0</ele><time>2026-03-27T09:47:41.19Z</time></trkpt><trkpt lat="45.8462371" lon="9.4306149"><ele>546.0</ele><time>2026-03-27T09:47:49.199Z</time></trkpt><trkpt lat="45.8461667" lon="9.4306092"><ele>546.0</ele><time>2026-03-27T09:47:55.126Z</time></trkpt><trkpt lat="45.846103" lon="9.4305917"><ele>546.0</ele><time>2026-03-27T09:48:01.159Z</time></trkpt><trkpt lat="45.8460418" lon="9.4306169"><ele>550.3333333333334</ele><time>2026-03-27T09:48:11.219Z</time></trkpt><trkpt lat="45.845979" lon="9.4306584"><ele>554.6666666666666</ele><time>2026-03-27T09:48:23.108Z</time></trkpt><trkpt lat="45.8459035" lon="9.4306704"><ele>559.0</ele><time>2026-03-27T09:48:56.12Z</time></trkpt><trkpt lat="45.8458351" lon="9.4307028"><ele>563.3333333333333</ele><time>2026-03-27T09:48:59.017Z</time></trkpt><trkpt lat="45.8457186" lon="9.4307995"><ele>567.6666666666666</ele><time>2026-03-27T09:49:24.151Z</time></trkpt><trkpt lat="45.8456675" lon="9.4308616"><ele>572.0</ele><time>2026-03-27T09:49:32.159Z</time></trkpt><trkpt lat="45.8456239" lon="9.430942"><ele>572.1428571428571</ele><time>2026-03-27T09:49:46.199Z</time></trkpt><trkpt lat="45.8455665" lon="9.4309822"><ele>572.2857142857142</ele><time>2026-03-27T09:49:59.198Z</time></trkpt><trkpt lat="45.8455112" lon="9.4310297"><ele>572.4285714285714</ele><time>2026-03-27T09:50:06.167Z</time></trkpt><trkpt lat="45.8454749" lon="9.4311071"><ele>572.5714285714286</ele><time>2026-03-27T09:50:23.119Z</time></trkpt><trkpt lat="45.8454581" lon="9.4311943"><ele>572.7142857142858</ele><time>2026-03-27T09:51:09.19Z</time></trkpt><trkpt lat="45.8454157" lon="9.4312665"><ele>572.8571428571429</ele><time>2026-03-27T09:51:13.143Z</time></trkpt><trkpt lat="45.8453452" lon="9.4312653"><ele>573.0</ele><time>2026-03-27T09:51:22.19Z</time></trkpt><trkpt lat="45.8453016" lon="9.4311997"><ele>573.0</ele><time>2026-03-27T09:51:31.135Z</time></trkpt><trkpt lat="45.8452465" lon="9.4311066"><ele>573.0</ele><time>2026-03-27T09:51:46.111Z</time></trkpt><trkpt lat="45.8451878" lon="9.4310635"><ele>573.0</ele><time>2026-03-27T09:51:58.174Z</time></trkpt><trkpt lat="45.845161" lon="9.4311504"><ele>573.0</ele><time>2026-03-27T09:52:10.134Z</time></trkpt><trkpt lat="45.8452036" lon="9.4312174"><ele>573.0</ele><time>2026-03-27T09:52:17.082Z</time></trkpt><trkpt lat="45.8452581" lon="9.4312634"><ele>573.0</ele><time>2026-03-27T09:52:29.167Z</time></trkpt><trkpt lat="45.8452538" lon="9.4313776"><ele>573.0</ele><time>2026-03-27T09:52:44.143Z</time></trkpt><trkpt lat="45.8451942" lon="9.431412"><ele>576.5</ele><time>2026-03-27T09:52:50.174Z</time></trkpt><trkpt lat="45.8451247" lon="9.4314137"><ele>580.0</ele><time>2026-03-27T09:52:57.143Z</time></trkpt><trkpt lat="45.8450897" lon="9.4313266"><ele>583.5</ele><time>2026-03-27T09:53:05.15Z</time></trkpt><trkpt lat="45.8450153" lon="9.4312543"><ele>587.0</ele><time>2026-03-27T09:53:26.162Z</time></trkpt><trkpt lat="45.8449626" lon="9.4311343"><ele>590.5</ele><time>2026-03-27T09:53:48.103Z</time></trkpt><trkpt lat="45.8449415" lon="9.4310482"><ele>594.0</ele><time>2026-03-27T09:53:51.118Z</time></trkpt><trkpt lat="45.8449292" lon="9.4309421"><ele>594.0</ele><time>2026-03-27T09:54:03.183Z</time></trkpt><trkpt lat="45.8448711" lon="9.4308983"><ele>594.0</ele><time>2026-03-27T09:54:09.215Z</time></trkpt><trkpt lat="45.8448125" lon="9.4309411"><ele>594.0</ele><time>2026-03-27T09:54:15.143Z</time></trkpt><trkpt lat="45.8447542" lon="9.4309837"><ele>594.0</ele><time>2026-03-27T09:54:24.191Z</time></trkpt><trkpt lat="45.8446879" lon="9.4310133"><ele>594.0</ele><time>2026-03-27T09:54:36.15Z</time></trkpt><trkpt lat="45.8446166" lon="9.4310313"><ele>594.0</ele><time>2026-03-27T09:54:51.226Z</time></trkpt><trkpt lat="45.8445559" lon="9.4310056"><ele>594.0</ele><time>2026-03-27T09:55:08.185Z</time></trkpt><trkpt lat="45.8444644" lon="9.4310733"><ele>594.0</ele><time>2026-03-27T09:55:27.215Z</time></trkpt><trkpt lat="45.8443767" lon="9.431069"><ele>594.0</ele><time>2026-03-27T09:55:43.121Z</time></trkpt><trkpt lat="45.8442466" lon="9.4310295"><ele>594.0</ele><time>2026-03-27T09:56:00.906Z</time></trkpt><trkpt lat="45.8441848" lon="9.4310028"><ele>594.0</ele><time>2026-03-27T09:56:13.425Z</time></trkpt><trkpt lat="45.8441277" lon="9.4309573"><ele>594.0</ele><time>2026-03-27T09:56:24.207Z</time></trkpt><trkpt lat="45.8440645" lon="9.4309506"><ele>594.0</ele><time>2026-03-27T09:56:38.143Z</time></trkpt><trkpt lat="45.8439967" lon="9.4309403"><ele>598.4285714285714</ele><time>2026-03-27T09:56:50.207Z</time></trkpt><trkpt lat="45.8440004" lon="9.4310312"><ele>602.8571428571429</ele><time>2026-03-27T09:57:09.135Z</time></trkpt><trkpt lat="45.8440368" lon="9.4311135"><ele>607.2857142857143</ele><time>2026-03-27T09:57:19.118Z</time></trkpt><trkpt lat="45.8440659" lon="9.4312319"><ele>611.7142857142858</ele><time>2026-03-27T09:57:39.191Z</time></trkpt><trkpt lat="45.844109" lon="9.4313009"><ele>616.1428571428571</ele><time>2026-03-27T09:57:48.135Z</time></trkpt><trkpt lat="45.8441614" lon="9.4313562"><ele>620.5714285714287</ele><time>2026-03-27T09:58:01.134Z</time></trkpt><trkpt lat="45.8442167" lon="9.4314112"><ele>625.0</ele><time>2026-03-27T09:58:09.143Z</time></trkpt><trkpt lat="45.8442719" lon="9.431468"><ele>624.8333333333334</ele><time>2026-03-27T09:58:17.226Z</time></trkpt><trkpt lat="45.8443506" lon="9.4315701"><ele>624.6666666666667</ele><time>2026-03-27T09:58:40.202Z</time></trkpt><trkpt lat="45.8444037" lon="9.4316355"><ele>624.5</ele><time>2026-03-27T09:58:49.183Z</time></trkpt><trkpt lat="45.8444694" lon="9.4316532"><ele>624.3333333333334</ele><time>2026-03-27T09:59:02.183Z</time></trkpt><trkpt lat="45.844529" lon="9.4316957"><ele>624.1666666666666</ele><time>2026-03-27T09:59:12.064Z</time></trkpt><trkpt lat="45.8445728" lon="9.431765"><ele>624.0</ele><time>2026-03-27T09:59:25.009Z</time></trkpt><trkpt lat="45.8446715" lon="9.431859"><ele>624.0</ele><time>2026-03-27T09:59:51.026Z</time></trkpt><trkpt lat="45.8447253" lon="9.4319187"><ele>624.0</ele><time>2026-03-27T10:00:02.191Z</time></trkpt><trkpt lat="45.8447469" lon="9.4320488"><ele>624.0</ele><time>2026-03-27T10:00:26.215Z</time></trkpt><trkpt lat="45.8447449" lon="9.4321404"><ele>624.0</ele><time>2026-03-27T10:00:50.135Z</time></trkpt><trkpt lat="45.8446912" lon="9.432217"><ele>624.0</ele><time>2026-03-27T10:01:01.159Z</time></trkpt><trkpt lat="45.8446523" lon="9.4322908"><ele>624.0</ele><time>2026-03-27T10:01:09.167Z</time></trkpt><trkpt lat="45.8445885" lon="9.4323124"><ele>624.0</ele><time>2026-03-27T10:01:26.119Z</time></trkpt><trkpt lat="45.8445211" lon="9.4323335"><ele>627.4285714285714</ele><time>2026-03-27T10:01:38.183Z</time></trkpt><trkpt lat="45.8444994" lon="9.4324267"><ele>630.8571428571428</ele><time>2026-03-27T10:01:46.13Z</time></trkpt><trkpt lat="45.8445112" lon="9.4325197"><ele>634.2857142857142</ele><time>2026-03-27T10:02:00.127Z</time></trkpt><trkpt lat="45.8445188" lon="9.4326132"><ele>637.7142857142858</ele><time>2026-03-27T10:02:15.025Z</time></trkpt><trkpt lat="45.8445593" lon="9.4326836"><ele>641.1428571428571</ele><time>2026-03-27T10:02:26.127Z</time></trkpt><trkpt lat="45.8445167" lon="9.4327504"><ele>644.5714285714286</ele><time>2026-03-27T10:02:46.198Z</time></trkpt><trkpt lat="45.8445448" lon="9.4328352"><ele>648.0</ele><time>2026-03-27T10:02:52.23Z</time></trkpt><trkpt lat="45.844556" lon="9.432925"><ele>651.5714285714286</ele><time>2026-03-27T10:03:01.175Z</time></trkpt><trkpt lat="45.8445805" lon="9.4330114"><ele>655.1428571428571</ele><time>2026-03-27T10:03:11.159Z</time></trkpt><trkpt lat="45.8446421" lon="9.4330552"><ele>658.7142857142858</ele><time>2026-03-27T10:03:25.105Z</time></trkpt><trkpt lat="45.8446753" lon="9.4331476"><ele>662.2857142857142</ele><time>2026-03-27T10:03:33.207Z</time></trkpt><trkpt lat="45.8447376" lon="9.4331735"><ele>665.8571428571428</ele><time>2026-03-27T10:03:40.225Z</time></trkpt><trkpt lat="45.8447747" lon="9.4332477"><ele>669.4285714285714</ele><time>2026-03-27T10:03:49.223Z</time></trkpt><trkpt lat="45.8447974" lon="9.4333367"><ele>673.0</ele><time>2026-03-27T10:03:58.167Z</time></trkpt><trkpt lat="45.8448531" lon="9.4333839"><ele>673.0</ele><time>2026-03-27T10:04:05.134Z</time></trkpt><trkpt lat="45.8449061" lon="9.433439"><ele>673.0</ele><time>2026-03-27T10:04:15.222Z</time></trkpt><trkpt lat="45.8449623" lon="9.4334903"><ele>673.0</ele><time>2026-03-27T10:04:24.167Z</time></trkpt><trkpt lat="45.8450306" lon="9.433516"><ele>673.0</ele><time>2026-03-27T10:04:32.175Z</time></trkpt><trkpt lat="45.8450812" lon="9.4335721"><ele>673.0</ele><time>2026-03-27T10:04:43.094Z</time></trkpt><trkpt lat="45.8451312" lon="9.4336316"><ele>673.0</ele><time>2026-03-27T10:04:56.198Z</time></trkpt><trkpt lat="45.8451935" lon="9.4336816"><ele>673.0</ele><time>2026-03-27T10:05:07.222Z</time></trkpt><trkpt lat="45.845257" lon="9.4337045"><ele>674.5714285714286</ele><time>2026-03-27T10:05:19.183Z</time></trkpt><trkpt lat="45.8453227" lon="9.4337047"><ele>676.1428571428571</ele><time>2026-03-27T10:05:29.167Z</time></trkpt><trkpt lat="45.8453802" lon="9.433758"><ele>677.7142857142857</ele><time>2026-03-27T10:05:40.065Z</time></trkpt><trkpt lat="45.8454363" lon="9.4338148"><ele>679.2857142857142</ele><time>2026-03-27T10:05:51.215Z</time></trkpt><trkpt lat="45.8455224" lon="9.4338273"><ele>680.8571428571429</ele><time>2026-03-27T10:06:09.206Z</time></trkpt><trkpt lat="45.845588" lon="9.4338459"><ele>682.4285714285713</ele><time>2026-03-27T10:06:17.215Z</time></trkpt><trkpt lat="45.8456477" lon="9.4338796"><ele>684.0</ele><time>2026-03-27T10:06:30.986Z</time></trkpt><trkpt lat="45.8457095" lon="9.4339322"><ele>684.8571428571428</ele><time>2026-03-27T10:06:39.105Z</time></trkpt><trkpt lat="45.845767" lon="9.4338862"><ele>685.7142857142857</ele><time>2026-03-27T10:06:53.199Z</time></trkpt><trkpt lat="45.8458236" lon="9.4338459"><ele>686.5714285714286</ele><time>2026-03-27T10:07:09.215Z</time></trkpt><trkpt lat="45.8458885" lon="9.4338204"><ele>687.4285714285713</ele><time>2026-03-27T10:07:21.174Z</time></trkpt><trkpt lat="45.8459513" lon="9.4338456"><ele>688.2857142857142</ele><time>2026-03-27T10:07:29.183Z</time></trkpt><trkpt lat="45.8460127" lon="9.4338213"><ele>689.1428571428571</ele><time>2026-03-27T10:07:37.191Z</time></trkpt><trkpt lat="45.8460739" lon="9.4337546"><ele>690.0</ele><time>2026-03-27T10:07:45.199Z</time></trkpt><trkpt lat="45.8460911" lon="9.4338571"><ele>690.0</ele><time>2026-03-27T10:08:00.175Z</time></trkpt><trkpt lat="45.8460224" lon="9.4338402"><ele>690.0</ele><time>2026-03-27T10:08:30.127Z</time></trkpt><trkpt lat="45.8460442" lon="9.4339282"><ele>690.0</ele><time>2026-03-27T10:08:36.159Z</time></trkpt><trkpt lat="45.845976" lon="9.4339237"><ele>690.0</ele><time>2026-03-27T10:08:42.104Z</time></trkpt><trkpt lat="45.8460363" lon="9.4338007"><ele>690.0</ele><time>2026-03-27T10:08:45.106Z</time></trkpt><trkpt lat="45.8461083" lon="9.4338419"><ele>690.0</ele><time>2026-03-27T10:08:52.175Z</time></trkpt><trkpt lat="45.8460517" lon="9.4338818"><ele>690.0</ele><time>2026-03-27T10:08:59.143Z</time></trkpt><trkpt lat="45.8459839" lon="9.4339221"><ele>690.0</ele><time>2026-03-27T10:09:29.103Z</time></trkpt><trkpt lat="45.8460482" lon="9.4339546"><ele>690.0</ele><time>2026-03-27T10:09:54.159Z</time></trkpt><trkpt lat="45.8460667" lon="9.4338601"><ele>690.0</ele><time>2026-03-27T10:10:14.126Z</time></trkpt><trkpt lat="45.846126" lon="9.4338086"><ele>690.0</ele><time>2026-03-27T10:10:19.118Z</time></trkpt><trkpt lat="45.8461977" lon="9.4338185"><ele>690.0</ele><time>2026-03-27T10:10:26.191Z</time></trkpt><trkpt lat="45.846264" lon="9.4338309"><ele>690.0</ele><time>2026-03-27T10:10:32.119Z</time></trkpt><trkpt lat="45.8463327" lon="9.4338371"><ele>690.0</ele><time>2026-03-27T10:10:43.143Z</time></trkpt><trkpt lat="45.8464047" lon="9.4338512"><ele>690.0</ele><time>2026-03-27T10:10:51.066Z</time></trkpt><trkpt lat="45.8464795" lon="9.4338573"><ele>690.0</ele><time>2026-03-27T10:10:58.119Z</time></trkpt><trkpt lat="45.8465523" lon="9.433851"><ele>690.0</ele><time>2026-03-27T10:11:03.105Z</time></trkpt><trkpt lat="45.8466207" lon="9.433842"><ele>690.0</ele><time>2026-03-27T10:11:09.122Z</time></trkpt><trkpt lat="45.8466966" lon="9.4338364"><ele>690.0</ele><time>2026-03-27T10:11:19.231Z</time></trkpt><trkpt lat="45.8467652" lon="9.4338365"><ele>690.0</ele><time>2026-03-27T10:11:25.159Z</time></trkpt><trkpt lat="45.8468107" lon="9.4337695"><ele>690.0</ele><time>2026-03-27T10:11:31.191Z</time></trkpt><trkpt lat="45.8468805" lon="9.4338106"><ele>688.7142857142858</ele><time>2026-03-27T10:11:36.183Z</time></trkpt><trkpt lat="45.8469489" lon="9.4338114"><ele>687.4285714285714</ele><time>2026-03-27T10:11:41.186Z</time></trkpt><trkpt lat="45.8470163" lon="9.4338347"><ele>686.1428571428571</ele><time>2026-03-27T10:11:49.183Z</time></trkpt><trkpt lat="45.8470807" lon="9.4338422"><ele>684.8571428571429</ele><time>2026-03-27T10:11:56.15Z</time></trkpt><trkpt lat="45.8471517" lon="9.4338547"><ele>683.5714285714286</ele><time>2026-03-27T10:12:02.079Z</time></trkpt><trkpt lat="45.8472107" lon="9.4339157"><ele>682.2857142857143</ele><time>2026-03-27T10:12:08.145Z</time></trkpt><trkpt lat="45.8472773" lon="9.4339506"><ele>681.0</ele><time>2026-03-27T10:12:15.099Z</time></trkpt><trkpt lat="45.8473374" lon="9.4339884"><ele>681.0000000000001</ele><time>2026-03-27T10:12:22.15Z</time></trkpt><trkpt lat="45.8473934" lon="9.4340339"><ele>681.0</ele><time>2026-03-27T10:12:27.241Z</time></trkpt><trkpt lat="45.8474608" lon="9.4340749"><ele>681.0</ele><time>2026-03-27T10:12:33.175Z</time></trkpt><trkpt lat="45.8475283" lon="9.4341109"><ele>681.0</ele><time>2026-03-27T10:12:39.207Z</time></trkpt><trkpt lat="45.847593" lon="9.4341054"><ele>681.0</ele><time>2026-03-27T10:12:46.174Z</time></trkpt><trkpt lat="45.8476611" lon="9.4341261"><ele>681.0000000000001</ele><time>2026-03-27T10:12:54.182Z</time></trkpt><trkpt lat="45.8477333" lon="9.4341171"><ele>681.0</ele><time>2026-03-27T10:13:00.214Z</time></trkpt><trkpt lat="45.8477975" lon="9.4341425"><ele>681.2857142857143</ele><time>2026-03-27T10:13:05.104Z</time></trkpt><trkpt lat="45.8478705" lon="9.4341441"><ele>681.5714285714286</ele><time>2026-03-27T10:13:09.057Z</time></trkpt><trkpt lat="45.8479251" lon="9.4342011"><ele>681.8571428571429</ele><time>2026-03-27T10:13:18.206Z</time></trkpt><trkpt lat="45.8479802" lon="9.4341517"><ele>682.1428571428571</ele><time>2026-03-27T10:13:25.201Z</time></trkpt><trkpt lat="45.8480434" lon="9.4341639"><ele>682.4285714285714</ele><time>2026-03-27T10:13:32.218Z</time></trkpt><trkpt lat="45.8481113" lon="9.4341685"><ele>682.7142857142858</ele><time>2026-03-27T10:13:38.121Z</time></trkpt><trkpt lat="45.8481723" lon="9.4341964"><ele>683.0</ele><time>2026-03-27T10:13:51.162Z</time></trkpt><trkpt lat="45.8482287" lon="9.4341168"><ele>683.0</ele><time>2026-03-27T10:14:12.065Z</time></trkpt><trkpt lat="45.848215" lon="9.4342083"><ele>683.0</ele><time>2026-03-27T10:14:55.109Z</time></trkpt><trkpt lat="45.8481667" lon="9.4342833"><ele>683.0</ele><time>2026-03-27T10:15:24.107Z</time></trkpt><trkpt lat="45.8481883" lon="9.434185"><ele>683.0</ele><time>2026-03-27T10:15:37.104Z</time></trkpt><trkpt lat="45.8482517" lon="9.4342233"><ele>683.0</ele><time>2026-03-27T10:15:54.11Z</time></trkpt><trkpt lat="45.8483367" lon="9.4342067"><ele>683.0</ele><time>2026-03-27T10:16:02.105Z</time></trkpt><trkpt lat="45.848445" lon="9.4342017"><ele>684.4285714285714</ele><time>2026-03-27T10:16:10.106Z</time></trkpt><trkpt lat="45.8485" lon="9.434255"><ele>685.8571428571429</ele><time>2026-03-27T10:16:15.105Z</time></trkpt><trkpt lat="45.8485617" lon="9.434235"><ele>687.2857142857142</ele><time>2026-03-27T10:16:20.11Z</time></trkpt><trkpt lat="45.8486317" lon="9.4341467"><ele>688.7142857142858</ele><time>2026-03-27T10:16:29.106Z</time></trkpt><trkpt lat="45.848705" lon="9.434125"><ele>690.1428571428571</ele><time>2026-03-27T10:16:33.106Z</time></trkpt><trkpt lat="45.8487533" lon="9.43406"><ele>691.5714285714286</ele><time>2026-03-27T10:16:44.105Z</time></trkpt><trkpt lat="45.8488184" lon="9.433999"><ele>693.0</ele><time>2026-03-27T10:17:01.202Z</time></trkpt><trkpt lat="45.8488809" lon="9.4340341"><ele>693.0</ele><time>2026-03-27T10:17:06.194Z</time></trkpt><trkpt lat="45.8489543" lon="9.4340427"><ele>693.0</ele><time>2026-03-27T10:17:11.186Z</time></trkpt><trkpt lat="45.8490182" lon="9.4340209"><ele>693.0</ele><time>2026-03-27T10:17:16.178Z</time></trkpt><trkpt lat="45.8490737" lon="9.433977"><ele>693.0</ele><time>2026-03-27T10:17:27.201Z</time></trkpt><trkpt lat="45.8491318" lon="9.4340168"><ele>693.0</ele><time>2026-03-27T10:17:34.169Z</time></trkpt><trkpt lat="45.8492015" lon="9.4340473"><ele>693.0</ele><time>2026-03-27T10:17:42.178Z</time></trkpt><trkpt lat="45.8492646" lon="9.4340276"><ele>693.0</ele><time>2026-03-27T10:17:48.209Z</time></trkpt><trkpt lat="45.8493205" lon="9.4340824"><ele>692.4285714285714</ele><time>2026-03-27T10:17:56.117Z</time></trkpt><trkpt lat="45.8493961" lon="9.4340414"><ele>691.8571428571429</ele><time>2026-03-27T10:18:12.13Z</time></trkpt><trkpt lat="45.8494405" lon="9.4339662"><ele>691.2857142857142</ele><time>2026-03-27T10:18:18.162Z</time></trkpt><trkpt lat="45.8494813" lon="9.4338894"><ele>690.7142857142858</ele><time>2026-03-27T10:18:26.195Z</time></trkpt><trkpt lat="45.8495376" lon="9.4338325"><ele>690.1428571428571</ele><time>2026-03-27T10:18:35.18Z</time></trkpt><trkpt lat="45.849609" lon="9.4338304"><ele>689.5714285714286</ele><time>2026-03-27T10:18:40.107Z</time></trkpt><trkpt lat="45.8496726" lon="9.4338538"><ele>689.0</ele><time>2026-03-27T10:18:46.137Z</time></trkpt><trkpt lat="45.8497325" lon="9.4338879"><ele>689.0</ele><time>2026-03-27T10:18:53.21Z</time></trkpt><trkpt lat="45.849798" lon="9.4338934"><ele>689.0</ele><time>2026-03-27T10:18:59.101Z</time></trkpt><trkpt lat="45.8498559" lon="9.4339424"><ele>689.0</ele><time>2026-03-27T10:19:06.21Z</time></trkpt><trkpt lat="45.849897" lon="9.4340112"><ele>689.0</ele><time>2026-03-27T10:19:12.138Z</time></trkpt><trkpt lat="45.8499567" lon="9.4340448"><ele>689.0</ele><time>2026-03-27T10:19:20.146Z</time></trkpt><trkpt lat="45.8500378" lon="9.4340506"><ele>689.0</ele><time>2026-03-27T10:19:25.138Z</time></trkpt><trkpt lat="45.8501078" lon="9.4340608"><ele>689.0</ele><time>2026-03-27T10:19:29.077Z</time></trkpt><trkpt lat="45.8501679" lon="9.434102"><ele>686.2857142857142</ele><time>2026-03-27T10:19:38.138Z</time></trkpt><trkpt lat="45.8502296" lon="9.4341233"><ele>683.5714285714286</ele><time>2026-03-27T10:19:45.196Z</time></trkpt><trkpt lat="45.850282" lon="9.434181"><ele>680.8571428571429</ele><time>2026-03-27T10:19:53.218Z</time></trkpt><trkpt lat="45.8503302" lon="9.4342396"><ele>678.1428571428571</ele><time>2026-03-27T10:19:59.145Z</time></trkpt><trkpt lat="45.8503936" lon="9.4342044"><ele>675.4285714285714</ele><time>2026-03-27T10:20:23.169Z</time></trkpt><trkpt lat="45.8504534" lon="9.4341697"><ele>672.7142857142857</ele><time>2026-03-27T10:20:55.202Z</time></trkpt><trkpt lat="45.8503716" lon="9.4342174"><ele>670.0</ele><time>2026-03-27T10:21:15.17Z</time></trkpt><trkpt lat="45.8503954" lon="9.4343058"><ele>669.9999999999999</ele><time>2026-03-27T10:21:26.194Z</time></trkpt><trkpt lat="45.8504092" lon="9.4344016"><ele>670.0</ele><time>2026-03-27T10:21:33.162Z</time></trkpt><trkpt lat="45.8504049" lon="9.4344951"><ele>670.0</ele><time>2026-03-27T10:21:43.146Z</time></trkpt><trkpt lat="45.850417" lon="9.434586"><ele>670.0</ele><time>2026-03-27T10:21:53.13Z</time></trkpt><trkpt lat="45.850434" lon="9.4346744"><ele>670.0</ele><time>2026-03-27T10:21:58.122Z</time></trkpt><trkpt lat="45.8504472" lon="9.4347768"><ele>669.9999999999999</ele><time>2026-03-27T10:22:05.193Z</time></trkpt><trkpt lat="45.850479" lon="9.4348795"><ele>670.0</ele><time>2026-03-27T10:22:16.114Z</time></trkpt><trkpt lat="45.8505107" lon="9.4349687"><ele>671.1428571428571</ele><time>2026-03-27T10:22:23.186Z</time></trkpt><trkpt lat="45.8505374" lon="9.435055"><ele>672.2857142857142</ele><time>2026-03-27T10:22:29.113Z</time></trkpt><trkpt lat="45.850565" lon="9.4351496"><ele>673.4285714285713</ele><time>2026-03-27T10:22:35.146Z</time></trkpt><trkpt lat="45.850592" lon="9.435238"><ele>674.5714285714286</ele><time>2026-03-27T10:22:40.137Z</time></trkpt><trkpt lat="45.8506269" lon="9.4353156"><ele>675.7142857142858</ele><time>2026-03-27T10:22:46.169Z</time></trkpt><trkpt lat="45.8506635" lon="9.4353896"><ele>676.8571428571428</ele><time>2026-03-27T10:22:54.178Z</time></trkpt><trkpt lat="45.8506939" lon="9.435472"><ele>678.0</ele><time>2026-03-27T10:23:00.209Z</time></trkpt><trkpt lat="45.8507389" lon="9.435539"><ele>679.4285714285714</ele><time>2026-03-27T10:23:06.222Z</time></trkpt><trkpt lat="45.8507746" lon="9.4356224"><ele>680.8571428571429</ele><time>2026-03-27T10:23:13.209Z</time></trkpt><trkpt lat="45.8508093" lon="9.4357135"><ele>682.2857142857143</ele><time>2026-03-27T10:23:20.178Z</time></trkpt><trkpt lat="45.8508344" lon="9.4358018"><ele>683.7142857142858</ele><time>2026-03-27T10:23:26.084Z</time></trkpt><trkpt lat="45.8508516" lon="9.4358962"><ele>685.1428571428571</ele><time>2026-03-27T10:23:34.218Z</time></trkpt><trkpt lat="45.850862" lon="9.4359869"><ele>686.5714285714287</ele><time>2026-03-27T10:23:40.145Z</time></trkpt><trkpt lat="45.8509055" lon="9.4360673"><ele>688.0</ele><time>2026-03-27T10:23:47.218Z</time></trkpt><trkpt lat="45.8509539" lon="9.4361329"><ele>688.0000000000001</ele><time>2026-03-27T10:23:52.165Z</time></trkpt><trkpt lat="45.8509533" lon="9.4362287"><ele>688.0</ele><time>2026-03-27T10:23:58.137Z</time></trkpt><trkpt lat="45.8509553" lon="9.4363252"><ele>688.0</ele><time>2026-03-27T10:24:05.209Z</time></trkpt><trkpt lat="45.8509988" lon="9.4364104"><ele>688.0</ele><time>2026-03-27T10:24:17.033Z</time></trkpt><trkpt lat="45.8509916" lon="9.4365077"><ele>688.0</ele><time>2026-03-27T10:24:26.113Z</time></trkpt><trkpt lat="45.8509626" lon="9.4365895"><ele>688.0000000000001</ele><time>2026-03-27T10:24:33.186Z</time></trkpt><trkpt lat="45.8509571" lon="9.4366956"><ele>688.0</ele><time>2026-03-27T10:24:42.129Z</time></trkpt><trkpt lat="45.8509309" lon="9.4367779"><ele>688.1428571428572</ele><time>2026-03-27T10:24:48.161Z</time></trkpt><trkpt lat="45.8508887" lon="9.4368598"><ele>688.2857142857143</ele><time>2026-03-27T10:24:53.085Z</time></trkpt><trkpt lat="45.8508963" lon="9.436953"><ele>688.4285714285714</ele><time>2026-03-27T10:25:00.124Z</time></trkpt><trkpt lat="45.8509359" lon="9.4370366"><ele>688.5714285714287</ele><time>2026-03-27T10:25:08.13Z</time></trkpt><trkpt lat="45.8509566" lon="9.4371258"><ele>688.7142857142858</ele><time>2026-03-27T10:25:13.165Z</time></trkpt><trkpt lat="45.8509703" lon="9.4372168"><ele>688.8571428571429</ele><time>2026-03-27T10:25:19.164Z</time></trkpt><trkpt lat="45.8510053" lon="9.4373055"><ele>689.0</ele><time>2026-03-27T10:25:28.061Z</time></trkpt><trkpt lat="45.8510413" lon="9.4373877"><ele>687.8571428571429</ele><time>2026-03-27T10:25:33.194Z</time></trkpt><trkpt lat="45.8511001" lon="9.4374451"><ele>686.7142857142858</ele><time>2026-03-27T10:25:38.186Z</time></trkpt><trkpt lat="45.8511259" lon="9.4375292"><ele>685.5714285714287</ele><time>2026-03-27T10:25:44.165Z</time></trkpt><trkpt lat="45.8511556" lon="9.4376208"><ele>684.4285714285714</ele><time>2026-03-27T10:25:50.145Z</time></trkpt><trkpt lat="45.851193" lon="9.4377044"><ele>683.2857142857143</ele><time>2026-03-27T10:25:58.154Z</time></trkpt><trkpt lat="45.8512112" lon="9.437794"><ele>682.1428571428572</ele><time>2026-03-27T10:26:07.106Z</time></trkpt><trkpt lat="45.8512087" lon="9.4378913"><ele>681.0</ele><time>2026-03-27T10:26:14.165Z</time></trkpt><trkpt lat="45.8512818" lon="9.4378652"><ele>681.0000000000001</ele><time>2026-03-27T10:26:22.182Z</time></trkpt><trkpt lat="45.8513377" lon="9.4378167"><ele>681.0</ele><time>2026-03-27T10:26:26.129Z</time></trkpt><trkpt lat="45.8514041" lon="9.4377826"><ele>681.0</ele><time>2026-03-27T10:26:34.138Z</time></trkpt><trkpt lat="45.8514693" lon="9.4377893"><ele>681.0</ele><time>2026-03-27T10:26:43.185Z</time></trkpt><trkpt lat="45.8514848" lon="9.4378855"><ele>681.0</ele><time>2026-03-27T10:27:19.362Z</time></trkpt><trkpt lat="45.8514208" lon="9.4378584"><ele>681.0000000000001</ele><time>2026-03-27T10:27:27.178Z</time></trkpt><trkpt lat="45.8514728" lon="9.4378043"><ele>681.0</ele><time>2026-03-27T10:27:33.21Z</time></trkpt><trkpt lat="45.8514108" lon="9.4378325"><ele>681.0000000000001</ele><time>2026-03-27T10:27:55.153Z</time></trkpt><trkpt lat="45.8513636" lon="9.4377684"><ele>681.0</ele><time>2026-03-27T10:28:01.186Z</time></trkpt><trkpt lat="45.8514262" lon="9.4378114"><ele>681.0</ele><time>2026-03-27T10:28:03.106Z</time></trkpt><trkpt lat="45.8514895" lon="9.4378252"><ele>681.0</ele><time>2026-03-27T10:28:08.154Z</time></trkpt><trkpt lat="45.8514674" lon="9.4379166"><ele>681.0</ele><time>2026-03-27T10:28:15.121Z</time></trkpt><trkpt lat="45.8514838" lon="9.4378289"><ele>681.0000000000001</ele><time>2026-03-27T10:28:28.121Z</time></trkpt><trkpt lat="45.8514304" lon="9.4378828"><ele>681.0</ele><time>2026-03-27T10:28:58.177Z</time></trkpt><trkpt lat="45.8514893" lon="9.4378347"><ele>681.0000000000001</ele><time>2026-03-27T10:29:23.137Z</time></trkpt><trkpt lat="45.8514573" lon="9.4377483"><ele>681.0</ele><time>2026-03-27T10:29:35.201Z</time></trkpt><trkpt lat="45.851455" lon="9.4378436"><ele>681.0</ele><time>2026-03-27T10:29:45.185Z</time></trkpt><trkpt lat="45.8515251" lon="9.4378005"><ele>681.0</ele><time>2026-03-27T10:29:48.106Z</time></trkpt><trkpt lat="45.8514844" lon="9.4377315"><ele>681.0</ele><time>2026-03-27T10:29:53.105Z</time></trkpt><trkpt lat="45.8514558" lon="9.4378199"><ele>681.0000000000001</ele><time>2026-03-27T10:30:00.161Z</time></trkpt><trkpt lat="45.851504" lon="9.4377438"><ele>681.0</ele><time>2026-03-27T10:30:25.122Z</time></trkpt><trkpt lat="45.8514363" lon="9.4377566"><ele>681.0000000000001</ele><time>2026-03-27T10:30:33.13Z</time></trkpt><trkpt lat="45.8514373" lon="9.4378522"><ele>681.0</ele><time>2026-03-27T10:30:40.104Z</time></trkpt><trkpt lat="45.8514979" lon="9.4378173"><ele>681.0</ele><time>2026-03-27T10:31:42.104Z</time></trkpt><trkpt lat="45.8515404" lon="9.4377372"><ele>681.0</ele><time>2026-03-27T10:31:49.132Z</time></trkpt><trkpt lat="45.8515936" lon="9.4378203"><ele>681.0</ele><time>2026-03-27T10:31:50.212Z</time></trkpt><trkpt lat="45.8516558" lon="9.4378603"><ele>681.0000000000001</ele><time>2026-03-27T10:31:53.109Z</time></trkpt><trkpt lat="45.8517033" lon="9.4379497"><ele>681.0</ele><time>2026-03-27T10:31:57.161Z</time></trkpt><trkpt lat="45.8517447" lon="9.4380267"><ele>682.1428571428572</ele><time>2026-03-27T10:32:01.218Z</time></trkpt><trkpt lat="45.8518122" lon="9.4380239"><ele>683.2857142857143</ele><time>2026-03-27T10:32:13.178Z</time></trkpt><trkpt lat="45.8518877" lon="9.4380672"><ele>684.4285714285714</ele><time>2026-03-27T10:32:19.106Z</time></trkpt><trkpt lat="45.8519512" lon="9.4381072"><ele>685.5714285714287</ele><time>2026-03-27T10:32:26.052Z</time></trkpt><trkpt lat="45.8520095" lon="9.4381436"><ele>686.7142857142858</ele><time>2026-03-27T10:32:32.174Z</time></trkpt><trkpt lat="45.8520578" lon="9.4382186"><ele>687.8571428571429</ele><time>2026-03-27T10:32:42.193Z</time></trkpt><trkpt lat="45.8521258" lon="9.4382592"><ele>689.0</ele><time>2026-03-27T10:32:47.186Z</time></trkpt><trkpt lat="45.8521814" lon="9.4383079"><ele>689.0</ele><time>2026-03-27T10:32:50.201Z</time></trkpt><trkpt lat="45.8522386" lon="9.4382673"><ele>689.0</ele><time>2026-03-27T10:33:08.194Z</time></trkpt><trkpt lat="45.8523045" lon="9.4382953"><ele>689.0</ele><time>2026-03-27T10:33:16.156Z</time></trkpt><trkpt lat="45.8523708" lon="9.4382768"><ele>689.0</ele><time>2026-03-27T10:33:21.068Z</time></trkpt><trkpt lat="45.8524347" lon="9.4382337"><ele>689.0</ele><time>2026-03-27T10:33:35.13Z</time></trkpt><trkpt lat="45.8524893" lon="9.4381887"><ele>689.0</ele><time>2026-03-27T10:33:49.169Z</time></trkpt><trkpt lat="45.8525468" lon="9.4381457"><ele>689.0</ele><time>2026-03-27T10:33:54.757Z</time></trkpt><trkpt lat="45.8525498" lon="9.4380491"><ele>688.0</ele><time>2026-03-27T10:34:15.17Z</time></trkpt><trkpt lat="45.8525705" lon="9.4379633"><ele>687.0</ele><time>2026-03-27T10:34:26.194Z</time></trkpt><trkpt lat="45.8526161" lon="9.4378908"><ele>686.0</ele><time>2026-03-27T10:34:33.161Z</time></trkpt><trkpt lat="45.8526442" lon="9.4378062"><ele>685.0</ele><time>2026-03-27T10:34:47.202Z</time></trkpt><trkpt lat="45.8526381" lon="9.4377038"><ele>684.0</ele><time>2026-03-27T10:35:09.146Z</time></trkpt><trkpt lat="45.8526298" lon="9.4376131"><ele>683.0</ele><time>2026-03-27T10:35:18.194Z</time></trkpt><trkpt lat="45.852633" lon="9.437707"><ele>682.0</ele><time>2026-03-27T10:35:26.202Z</time></trkpt><trkpt lat="45.8525714" lon="9.4376883"><ele>682.0</ele><time>2026-03-27T10:35:37.122Z</time></trkpt><trkpt lat="45.8525022" lon="9.4376682"><ele>682.0</ele><time>2026-03-27T10:35:44.193Z</time></trkpt><trkpt lat="45.8525738" lon="9.4376807"><ele>682.0</ele><time>2026-03-27T10:36:24.13Z</time></trkpt><trkpt lat="45.8526377" lon="9.4376634"><ele>682.0</ele><time>2026-03-27T10:36:31.201Z</time></trkpt><trkpt lat="45.8526634" lon="9.4377501"><ele>682.0</ele><time>2026-03-27T10:36:41.186Z</time></trkpt><trkpt lat="45.8526897" lon="9.4378382"><ele>682.0</ele><time>2026-03-27T10:36:48.153Z</time></trkpt><trkpt lat="45.8526953" lon="9.4379299"><ele>682.0</ele><time>2026-03-27T10:36:56.222Z</time></trkpt><trkpt lat="45.8526324" lon="9.437909"><ele>682.0</ele><time>2026-03-27T10:37:16.13Z</time></trkpt><trkpt lat="45.8526398" lon="9.4378148"><ele>682.0</ele><time>2026-03-27T10:37:24.137Z</time></trkpt><trkpt lat="45.8526071" lon="9.4379073"><ele>682.0</ele><time>2026-03-27T10:37:41.193Z</time></trkpt><trkpt lat="45.852564" lon="9.4379815"><ele>682.0</ele><time>2026-03-27T10:37:56.17Z</time></trkpt><trkpt lat="45.8525709" lon="9.4380802"><ele>682.0</ele><time>2026-03-27T10:38:09.169Z</time></trkpt><trkpt lat="45.8525623" lon="9.4381712"><ele>682.0</ele><time>2026-03-27T10:38:16.138Z</time></trkpt><trkpt lat="45.8525289" lon="9.4382501"><ele>682.0</ele><time>2026-03-27T10:38:21.129Z</time></trkpt><trkpt lat="45.8525773" lon="9.4383182"><ele>683.1666666666667</ele><time>2026-03-27T10:38:32.154Z</time></trkpt><trkpt lat="45.8526493" lon="9.4383428"><ele>684.3333333333334</ele><time>2026-03-27T10:38:41.108Z</time></trkpt><trkpt lat="45.8526058" lon="9.4384126"><ele>685.5</ele><time>2026-03-27T10:38:49.209Z</time></trkpt><trkpt lat="45.8526437" lon="9.4384924"><ele>686.6666666666666</ele><time>2026-03-27T10:38:59.194Z</time></trkpt><trkpt lat="45.8526884" lon="9.4385701"><ele>687.8333333333333</ele><time>2026-03-27T10:39:09.181Z</time></trkpt><trkpt lat="45.8527382" lon="9.4386372"><ele>689.0</ele><time>2026-03-27T10:39:16.146Z</time></trkpt><trkpt lat="45.85269" lon="9.4387932"><ele>689.0</ele><time>2026-03-27T10:39:40.21Z</time></trkpt><trkpt lat="45.8526177" lon="9.4387518"><ele>689.0</ele><time>2026-03-27T10:39:58.162Z</time></trkpt><trkpt lat="45.8525716" lon="9.4388297"><ele>689.0</ele><time>2026-03-27T10:40:04.106Z</time></trkpt><trkpt lat="45.8524923" lon="9.4387757"><ele>689.0</ele><time>2026-03-27T10:40:09.109Z</time></trkpt><trkpt lat="45.8525892" lon="9.4387329"><ele>689.0</ele><time>2026-03-27T10:40:15.113Z</time></trkpt><trkpt lat="45.8526461" lon="9.438779"><ele>689.0</ele><time>2026-03-27T10:40:18.129Z</time></trkpt><trkpt lat="45.8526793" lon="9.4386673"><ele>689.0</ele><time>2026-03-27T10:40:30.11Z</time></trkpt><trkpt lat="45.8526107" lon="9.4386723"><ele>689.0</ele><time>2026-03-27T10:40:34.108Z</time></trkpt><trkpt lat="45.8525515" lon="9.4386382"><ele>689.0</ele><time>2026-03-27T10:40:37.108Z</time></trkpt><trkpt lat="45.852554" lon="9.438544"><ele>689.0</ele><time>2026-03-27T10:40:47.109Z</time></trkpt><trkpt lat="45.8525138" lon="9.4384594"><ele>689.0</ele><time>2026-03-27T10:40:53.105Z</time></trkpt><trkpt lat="45.8525126" lon="9.4383316"><ele>689.0</ele><time>2026-03-27T10:41:05.104Z</time></trkpt><trkpt lat="45.852505" lon="9.4382416"><ele>689.0</ele><time>2026-03-27T10:41:19.181Z</time></trkpt><trkpt lat="45.8524381" lon="9.4382653"><ele>689.0</ele><time>2026-03-27T10:41:27.069Z</time></trkpt><trkpt lat="45.8523623" lon="9.4382627"><ele>689.0</ele><time>2026-03-27T10:41:33.221Z</time></trkpt><trkpt lat="45.8523038" lon="9.4383084"><ele>689.0</ele><time>2026-03-27T10:41:40.189Z</time></trkpt><trkpt lat="45.8522359" lon="9.4383407"><ele>689.0</ele><time>2026-03-27T10:41:47.067Z</time></trkpt><trkpt lat="45.8521715" lon="9.4383037"><ele>689.0</ele><time>2026-03-27T10:41:54.124Z</time></trkpt><trkpt lat="45.8521062" lon="9.4383011"><ele>689.0</ele><time>2026-03-27T10:42:00.211Z</time></trkpt><trkpt lat="45.8520441" lon="9.4382708"><ele>689.0</ele><time>2026-03-27T10:42:07.125Z</time></trkpt><trkpt lat="45.8520126" lon="9.4381907"><ele>689.0</ele><time>2026-03-27T10:42:16.173Z</time></trkpt><trkpt lat="45.8519492" lon="9.4381711"><ele>689.0</ele><time>2026-03-27T10:42:21.211Z</time></trkpt><trkpt lat="45.8518807" lon="9.4381691"><ele>689.0</ele><time>2026-03-27T10:42:54.132Z</time></trkpt><trkpt lat="45.8518325" lon="9.4381094"><ele>689.0</ele><time>2026-03-27T10:43:00.164Z</time></trkpt><trkpt lat="45.8518983" lon="9.4381507"><ele>689.0</ele><time>2026-03-27T10:43:01.106Z</time></trkpt><trkpt lat="45.8518867" lon="9.4380588"><ele>689.0</ele><time>2026-03-27T10:43:30.116Z</time></trkpt><trkpt lat="45.8518311" lon="9.4379967"><ele>689.0</ele><time>2026-03-27T10:43:42.181Z</time></trkpt><trkpt lat="45.8517701" lon="9.4379599"><ele>687.8571428571429</ele><time>2026-03-27T10:43:49.107Z</time></trkpt><trkpt lat="45.851706" lon="9.4379492"><ele>686.7142857142858</ele><time>2026-03-27T10:43:57.157Z</time></trkpt><trkpt lat="45.8516453" lon="9.4379142"><ele>685.5714285714287</ele><time>2026-03-27T10:44:07.14Z</time></trkpt><trkpt lat="45.8515855" lon="9.437865"><ele>684.4285714285714</ele><time>2026-03-27T10:44:14.171Z</time></trkpt><trkpt lat="45.8515175" lon="9.4378338"><ele>683.2857142857143</ele><time>2026-03-27T10:44:19.211Z</time></trkpt><trkpt lat="45.8514489" lon="9.4378104"><ele>682.1428571428572</ele><time>2026-03-27T10:44:26.17Z</time></trkpt><trkpt lat="45.8513865" lon="9.4377894"><ele>681.0</ele><time>2026-03-27T10:44:34.181Z</time></trkpt><trkpt lat="45.851321" lon="9.437826"><ele>681.0000000000001</ele><time>2026-03-27T10:44:40.109Z</time></trkpt><trkpt lat="45.8512652" lon="9.4378963"><ele>681.0</ele><time>2026-03-27T10:44:45.109Z</time></trkpt><trkpt lat="45.8512227" lon="9.4379647"><ele>681.0</ele><time>2026-03-27T10:44:51.133Z</time></trkpt><trkpt lat="45.8511698" lon="9.4379008"><ele>681.0</ele><time>2026-03-27T10:44:59.14Z</time></trkpt><trkpt lat="45.8511677" lon="9.4377962"><ele>681.0</ele><time>2026-03-27T10:45:06.089Z</time></trkpt><trkpt lat="45.8511334" lon="9.4377013"><ele>681.0000000000001</ele><time>2026-03-27T10:45:11.108Z</time></trkpt><trkpt lat="45.8510854" lon="9.4376181"><ele>681.0</ele><time>2026-03-27T10:45:15.157Z</time></trkpt><trkpt lat="45.8510724" lon="9.4375256"><ele>681.0000000000001</ele><time>2026-03-27T10:45:28.051Z</time></trkpt><trkpt lat="45.8510234" lon="9.437466"><ele>681.0</ele><time>2026-03-27T10:45:33.187Z</time></trkpt><trkpt lat="45.8509827" lon="9.437395"><ele>681.0</ele><time>2026-03-27T10:45:40.116Z</time></trkpt><trkpt lat="45.8509608" lon="9.4372877"><ele>681.0</ele><time>2026-03-27T10:45:47.211Z</time></trkpt><trkpt lat="45.8509544" lon="9.4371919"><ele>681.0</ele><time>2026-03-27T10:45:51.091Z</time></trkpt><trkpt lat="45.8509403" lon="9.4371"><ele>681.0000000000001</ele><time>2026-03-27T10:45:55.169Z</time></trkpt><trkpt lat="45.8509011" lon="9.437024"><ele>681.0</ele><time>2026-03-27T10:45:59.149Z</time></trkpt><trkpt lat="45.8508885" lon="9.4369181"><ele>680.0000000000001</ele><time>2026-03-27T10:46:04.141Z</time></trkpt><trkpt lat="45.8508881" lon="9.4368233"><ele>679.0</ele><time>2026-03-27T10:46:09.027Z</time></trkpt><trkpt lat="45.8509316" lon="9.4367518"><ele>678.0</ele><time>2026-03-27T10:46:14.125Z</time></trkpt><trkpt lat="45.850967" lon="9.4366696"><ele>677.0</ele><time>2026-03-27T10:46:20.157Z</time></trkpt><trkpt lat="45.8509682" lon="9.4365781"><ele>676.0</ele><time>2026-03-27T10:46:28.164Z</time></trkpt><trkpt lat="45.8509499" lon="9.4364778"><ele>675.0000000000001</ele><time>2026-03-27T10:46:33.157Z</time></trkpt><trkpt lat="45.8509617" lon="9.4363814"><ele>674.0</ele><time>2026-03-27T10:46:40.125Z</time></trkpt><trkpt lat="45.8509621" lon="9.4362809"><ele>676.0000000000001</ele><time>2026-03-27T10:46:50.108Z</time></trkpt><trkpt lat="45.8509563" lon="9.4361904"><ele>678.0</ele><time>2026-03-27T10:46:58.051Z</time></trkpt><trkpt lat="45.8509088" lon="9.4361071"><ele>680.0</ele><time>2026-03-27T10:47:03.108Z</time></trkpt><trkpt lat="45.850874" lon="9.4360165"><ele>682.0</ele><time>2026-03-27T10:47:10.131Z</time></trkpt><trkpt lat="45.8508562" lon="9.4359169"><ele>684.0</ele><time>2026-03-27T10:47:19.125Z</time></trkpt><trkpt lat="45.8508279" lon="9.4358239"><ele>686.0000000000001</ele><time>2026-03-27T10:47:24.117Z</time></trkpt><trkpt lat="45.850776" lon="9.4357523"><ele>688.0</ele><time>2026-03-27T10:47:30.149Z</time></trkpt><trkpt lat="45.8507346" lon="9.4356737"><ele>688.0</ele><time>2026-03-27T10:47:38.157Z</time></trkpt><trkpt lat="45.8506914" lon="9.435591"><ele>688.0</ele><time>2026-03-27T10:47:46.165Z</time></trkpt><trkpt lat="45.8506583" lon="9.4354869"><ele>688.0</ele><time>2026-03-27T10:47:51.156Z</time></trkpt><trkpt lat="45.8506227" lon="9.4354074"><ele>688.0</ele><time>2026-03-27T10:47:56.149Z</time></trkpt><trkpt lat="45.8505578" lon="9.4354229"><ele>688.0</ele><time>2026-03-27T10:48:02.181Z</time></trkpt><trkpt lat="45.8504955" lon="9.4354364"><ele>688.0</ele><time>2026-03-27T10:48:08.114Z</time></trkpt><trkpt lat="45.8503945" lon="9.4353596"><ele>686.3333333333334</ele><time>2026-03-27T10:48:29.116Z</time></trkpt><trkpt lat="45.8503265" lon="9.4353406"><ele>684.6666666666667</ele><time>2026-03-27T10:48:36.067Z</time></trkpt><trkpt lat="45.8502661" lon="9.4353084"><ele>683.0</ele><time>2026-03-27T10:48:44.068Z</time></trkpt><trkpt lat="45.8501896" lon="9.4351787"><ele>681.3333333333334</ele><time>2026-03-27T10:49:04.165Z</time></trkpt><trkpt lat="45.8501559" lon="9.4350981"><ele>679.6666666666666</ele><time>2026-03-27T10:49:10.197Z</time></trkpt><trkpt lat="45.8501283" lon="9.4350098"><ele>678.0</ele><time>2026-03-27T10:49:17.051Z</time></trkpt><trkpt lat="45.8500704" lon="9.4349421"><ele>699.0</ele><time>2026-03-27T10:49:23.197Z</time></trkpt><trkpt lat="45.8500182" lon="9.4348884"><ele>699.0</ele><time>2026-03-27T10:49:32.188Z</time></trkpt><trkpt lat="45.8499549" lon="9.4348511"><ele>699.0</ele><time>2026-03-27T10:49:40.149Z</time></trkpt><trkpt lat="45.849898" lon="9.4347977"><ele>699.0</ele><time>2026-03-27T10:49:57.205Z</time></trkpt><trkpt lat="45.8497998" lon="9.4347902"><ele>699.0</ele><time>2026-03-27T10:50:35.165Z</time></trkpt><trkpt lat="45.8498576" lon="9.4348284"><ele>699.0</ele><time>2026-03-27T10:50:45.108Z</time></trkpt></trkseg></trk></gpx>